Hovedside
METAR-TAF:

METAR-TAF

Lufthavner :

Pago Pago, USAs ytre småøyer

breddegrad: 14-20S, lengdegrad: 170-43W, høyde over havet: 3 m

Gjeldene værobservasjon

Denne rapporten ble laget for 40 minutter siden, klokken 02:51 UTC
Vind 7 kt fra Øst-sørøst
Temperatur 29°C
Luftfuktighet 79%
Trykk 1009 hPa
Sikt: 19.3 km
Få skyer i en høyde av 1800 ft, Tårnskyer (cumulus).
Spredte skyer i en høyde av 4000 ft
Brutte skyer i en høyde av 10000 ft

METAR: NSTU 170251Z 11007KT 12SM FEW018TCU SCT040 BKN100 29/25 A2980 RMK SLP093 60003 8/870 T02870245 57012

Tid: 16:31 (03:31 UTC)

Varsel

Denne rapporten ble laget for 4 timer og 1 minutter siden, klokken 23:30 UTC
Varsel gyldig fra 17. klokken 00 UTC til 17. klokken 24 UTC
Vind 8 kt fra Øst
Sikt: 10 km
Spredte skyer i en høyde av 2000 ft
Spredte skyer i en høyde av 4000 ft
Brutte skyer i en høyde av 10000 ft
regnbyger i nærheten

TAF: NSTU 162330Z 1700/1724 08008KT P6SM VCSH SCT020 SCT040 BKN100

Værobservasjoner og værvarsel for over 4000 flyplasser (METAR- og TAF-rapporter).

Tilgjengelige stasjoner er representert av de røde og gule prikkene på kartet.

Hold musepekeren over prikken for å se navnet på stasjonen.

Klikk så for å se værobservasjoner og -varsler.

For å forandre kartet kan du klikke på den grønne knappen med svart kryss for å zoome inn, på den grønne knappen med strek for å zoome ut, eller på de grønne pilene for å se tilstøtende kart.


METAR-TAF: